sensor_id;sensor_type;location;lat;lon;timestamp;pressure;altitude;pressure_sealevel;temperature;humidity
15568;BME280;7885;42.596;23.044;2023-02-13T00:00:41;94565.81;;;1.56;92.64
15568;BME280;7885;42.596;23.044;2023-02-13T00:03:08;94588.00;;;1.75;92.45
15568;BME280;7885;42.596;23.044;2023-02-13T00:05:35;94587.41;;;1.78;92.21
15568;BME280;7885;42.596;23.044;2023-02-13T00:08:02;94572.38;;;1.77;91.85
15568;BME280;7885;42.596;23.044;2023-02-13T00:10:30;94541.09;;;1.59;91.69
15568;BME280;7885;42.596;23.044;2023-02-13T00:12:57;94588.19;;;1.92;91.34
15568;BME280;7885;42.596;23.044;2023-02-13T00:15:23;94582.44;;;1.85;91.34
15568;BME280;7885;42.596;23.044;2023-02-13T00:17:50;94550.81;;;1.68;91.35
15568;BME280;7885;42.596;23.044;2023-02-13T00:20:17;94568.41;;;1.88;90.92
15568;BME280;7885;42.596;23.044;2023-02-13T00:22:44;94593.34;;;2.02;90.99
15568;BME280;7885;42.596;23.044;2023-02-13T00:25:11;94588.88;;;1.97;90.65
15568;BME280;7885;42.596;23.044;2023-02-13T00:27:39;94586.19;;;1.97;90.83
15568;BME280;7885;42.596;23.044;2023-02-13T00:30:06;94593.34;;;2.02;90.67
15568;BME280;7885;42.596;23.044;2023-02-13T00:32:33;94557.75;;;1.83;90.57
15568;BME280;7885;42.596;23.044;2023-02-13T00:35:00;94586.78;;;1.94;90.23
15568;BME280;7885;42.596;23.044;2023-02-13T00:37:27;94577.44;;;1.92;88.69
15568;BME280;7885;42.596;23.044;2023-02-13T00:39:53;94588.19;;;1.92;87.62
15568;BME280;7885;42.596;23.044;2023-02-13T00:42:20;94607.88;;;2.01;87.05
15568;BME280;7885;42.596;23.044;2023-02-13T00:44:49;94585.41;;;1.83;86.82
15568;BME280;7885;42.596;23.044;2023-02-13T00:47:16;94599.94;;;1.82;86.54
15568;BME280;7885;42.596;23.044;2023-02-13T00:49:45;94604.97;;;1.84;86.02
15568;BME280;7885;42.596;23.044;2023-02-13T00:52:12;94605.09;;;1.79;85.19
15568;BME280;7885;42.596;23.044;2023-02-13T00:54:38;94613.22;;;1.74;84.69
15568;BME280;7885;42.596;23.044;2023-02-13T00:57:05;94611.44;;;1.69;84.80
15568;BME280;7885;42.596;23.044;2023-02-13T00:59:32;94614.81;;;1.61;84.98
15568;BME280;7885;42.596;23.044;2023-02-13T01:02:00;94615.63;;;1.62;84.68
15568;BME280;7885;42.596;23.044;2023-02-13T01:04:26;94615.22;;;1.55;84.98
15568;BME280;7885;42.596;23.044;2023-02-13T01:06:53;94623.28;;;1.55;84.68
15568;BME280;7885;42.596;23.044;2023-02-13T01:09:20;94574.00;;;1.18;85.16
15568;BME280;7885;42.596;23.044;2023-02-13T01:11:47;94618.16;;;1.39;85.25
15568;BME280;7885;42.596;23.044;2023-02-13T01:14:13;94626.41;;;1.43;85.20
15568;BME280;7885;42.596;23.044;2023-02-13T01:16:40;94622.44;;;1.40;85.79
15568;BME280;7885;42.596;23.044;2023-02-13T01:19:08;94619.66;;;1.45;85.80
15568;BME280;7885;42.596;23.044;2023-02-13T01:21:35;94565.66;;;1.06;85.24
15568;BME280;7885;42.596;23.044;2023-02-13T01:24:03;94626.31;;;1.34;85.58
15568;BME280;7885;42.596;23.044;2023-02-13T01:26:30;94629.78;;;1.35;85.92
15568;BME280;7885;42.596;23.044;2023-02-13T01:28:56;94628.47;;;1.32;86.02
15568;BME280;7885;42.596;23.044;2023-02-13T01:31:24;94587.53;;;1.13;86.01
15568;BME280;7885;42.596;23.044;2023-02-13T01:33:51;94619.56;;;1.37;85.88
15568;BME280;7885;42.596;23.044;2023-02-13T01:36:19;94621.16;;;1.38;86.00
15568;BME280;7885;42.596;23.044;2023-02-13T01:38:46;94612.38;;;1.32;86.05
15568;BME280;7885;42.596;23.044;2023-02-13T01:41:12;94579.97;;;1.15;86.20
15568;BME280;7885;42.596;23.044;2023-02-13T01:43:45;94608.63;;;1.33;86.04
15568;BME280;7885;42.596;23.044;2023-02-13T01:46:15;94611.38;;;1.28;86.00
15568;BME280;7885;42.596;23.044;2023-02-13T01:48:43;94625.19;;;1.35;86.62
15568;BME280;7885;42.596;23.044;2023-02-13T01:51:13;94630.88;;;1.34;86.69
15568;BME280;7885;42.596;23.044;2023-02-13T01:53:45;94626.09;;;1.31;86.99
15568;BME280;7885;42.596;23.044;2023-02-13T01:56:19;94629.34;;;1.28;86.97
15568;BME280;7885;42.596;23.044;2023-02-13T01:58:49;94622.91;;;1.29;87.14
15568;BME280;7885;42.596;23.044;2023-02-13T02:01:18;94619.75;;;1.27;87.38
15568;BME280;7885;42.596;23.044;2023-02-13T02:03:48;94616.31;;;1.21;87.34
15568;BME280;7885;42.596;23.044;2023-02-13T02:06:24;94633.03;;;1.32;87.47
15568;BME280;7885;42.596;23.044;2023-02-13T02:08:56;94630.06;;;1.33;87.22
15568;BME280;7885;42.596;23.044;2023-02-13T02:11:31;94637.03;;;1.34;87.31
15568;BME280;7885;42.596;23.044;2023-02-13T02:14:00;94639.41;;;1.36;87.10
15568;BME280;7885;42.596;23.044;2023-02-13T02:16:28;94623.09;;;1.19;86.76
15568;BME280;7885;42.596;23.044;2023-02-13T02:18:56;94641.88;;;1.32;86.78
15568;BME280;7885;42.596;23.044;2023-02-13T02:21:53;94640.22;;;1.36;86.82
15568;BME280;7885;42.596;23.044;2023-02-13T02:24:51;94641.31;;;1.35;86.51
15568;BME280;7885;42.596;23.044;2023-02-13T02:27:58;94638.72;;;1.30;86.30
15568;BME280;7885;42.596;23.044;2023-02-13T02:33:43;94642.56;;;1.24;87.01
15568;BME280;7885;42.596;23.044;2023-02-13T02:36:34;94642.16;;;1.17;86.96
15568;BME280;7885;42.596;23.044;2023-02-13T02:39:12;94639.94;;;1.06;87.94
15568;BME280;7885;42.596;23.044;2023-02-13T02:41:54;94632.75;;;1.01;88.58
15568;BME280;7885;42.596;23.044;2023-02-13T02:44:31;94637.66;;;1.13;88.72
15568;BME280;7885;42.596;23.044;2023-02-13T02:47:08;94634.59;;;1.19;88.17
15568;BME280;7885;42.596;23.044;2023-02-13T02:50:02;94636.81;;;1.17;88.27
15568;BME280;7885;42.596;23.044;2023-02-13T02:52:41;94645.81;;;1.21;88.33
15568;BME280;7885;42.596;23.044;2023-02-13T02:55:16;94647.34;;;1.27;88.12
15568;BME280;7885;42.596;23.044;2023-02-13T02:57:49;94633.94;;;1.27;88.00
15568;BME280;7885;42.596;23.044;2023-02-13T03:00:37;94646.38;;;1.37;88.07
15568;BME280;7885;42.596;23.044;2023-02-13T03:03:23;94649.88;;;1.37;87.58
15568;BME280;7885;42.596;23.044;2023-02-13T03:06:13;94629.06;;;1.29;87.33
15568;BME280;7885;42.596;23.044;2023-02-13T03:08:43;94649.75;;;1.42;87.37
15568;BME280;7885;42.596;23.044;2023-02-13T03:11:28;94655.34;;;1.46;86.94
15568;BME280;7885;42.596;23.044;2023-02-13T03:14:16;94656.22;;;1.41;87.07
15568;BME280;7885;42.596;23.044;2023-02-13T03:16:45;94648.97;;;1.42;87.01
15568;BME280;7885;42.596;23.044;2023-02-13T03:19:40;94606.56;;;1.12;87.11
15568;BME280;7885;42.596;23.044;2023-02-13T03:22:35;94657.31;;;1.40;87.17
15568;BME280;7885;42.596;23.044;2023-02-13T03:25:10;94630.25;;;1.23;87.11
15568;BME280;7885;42.596;23.044;2023-02-13T03:27:45;94620.88;;;1.21;87.25
15568;BME280;7885;42.596;23.044;2023-02-13T03:30:39;94634.03;;;1.22;87.26
15568;BME280;7885;42.596;23.044;2023-02-13T03:33:19;94653.13;;;1.34;87.17
15568;BME280;7885;42.596;23.044;2023-02-13T03:35:52;94636.69;;;1.22;87.36
15568;BME280;7885;42.596;23.044;2023-02-13T03:38:42;94654.13;;;1.38;87.24
15568;BME280;7885;42.596;23.044;2023-02-13T03:41:15;94630.84;;;1.20;87.40
15568;BME280;7885;42.596;23.044;2023-02-13T03:43:49;94665.84;;;1.42;87.00
15568;BME280;7885;42.596;23.044;2023-02-13T03:46:18;94626.84;;;1.18;87.10
15568;BME280;7885;42.596;23.044;2023-02-13T03:48:46;94658.72;;;1.38;87.16
15568;BME280;7885;42.596;23.044;2023-02-13T03:51:33;94662.75;;;1.35;87.00
15568;BME280;7885;42.596;23.044;2023-02-13T03:54:06;94647.91;;;1.24;87.38
15568;BME280;7885;42.596;23.044;2023-02-13T03:56:39;94614.94;;;1.10;87.70
15568;BME280;7885;42.596;23.044;2023-02-13T03:59:28;94657.31;;;1.40;87.79
15568;BME280;7885;42.596;23.044;2023-02-13T04:02:00;94651.38;;;1.43;87.84
15568;BME280;7885;42.596;23.044;2023-02-13T04:04:37;94587.69;;;1.03;87.92
15568;BME280;7885;42.596;23.044;2023-02-13T04:07:07;94664.59;;;1.53;87.82
15568;BME280;7885;42.596;23.044;2023-02-13T04:09:40;94658.16;;;1.55;87.73
15568;BME280;7885;42.596;23.044;2023-02-13T04:12:13;94650.19;;;1.49;87.82
15568;BME280;7885;42.596;23.044;2023-02-13T04:14:46;94668.50;;;1.61;87.81
15568;BME280;7885;42.596;23.044;2023-02-13T04:17:18;94651.97;;;1.54;87.75
15568;BME280;7885;42.596;23.044;2023-02-13T04:19:48;94641.31;;;1.49;87.42
15568;BME280;7885;42.596;23.044;2023-02-13T04:22:15;94628.31;;;1.42;87.90
15568;BME280;7885;42.596;23.044;2023-02-13T04:24:43;94652.59;;;1.65;87.93
15568;BME280;7885;42.596;23.044;2023-02-13T04:27:12;94682.41;;;1.77;87.71
15568;BME280;7885;42.596;23.044;2023-02-13T04:29:40;94664.75;;;1.76;87.75
15568;BME280;7885;42.596;23.044;2023-02-13T04:32:08;94670.69;;;1.73;87.66
15568;BME280;7885;42.596;23.044;2023-02-13T04:34:35;94655.19;;;1.70;87.30
15568;BME280;7885;42.596;23.044;2023-02-13T04:37:02;94655.69;;;1.72;87.43
15568;BME280;7885;42.596;23.044;2023-02-13T04:39:28;94670.28;;;1.79;87.39
15568;BME280;7885;42.596;23.044;2023-02-13T04:41:57;94679.66;;;1.82;87.41
15568;BME280;7885;42.596;23.044;2023-02-13T04:44:23;94673.69;;;1.85;87.29
15568;BME280;7885;42.596;23.044;2023-02-13T04:46:50;94673.97;;;1.83;87.50
15568;BME280;7885;42.596;23.044;2023-02-13T04:49:17;94648.25;;;1.69;87.26
15568;BME280;7885;42.596;23.044;2023-02-13T04:51:44;94626.97;;;1.59;87.04
15568;BME280;7885;42.596;23.044;2023-02-13T04:54:10;94665.63;;;1.85;86.94
15568;BME280;7885;42.596;23.044;2023-02-13T04:56:37;94675.78;;;1.88;86.55
15568;BME280;7885;42.596;23.044;2023-02-13T04:59:05;94664.56;;;1.86;86.89
15568;BME280;7885;42.596;23.044;2023-02-13T05:01:32;94662.34;;;1.88;86.85
15568;BME280;7885;42.596;23.044;2023-02-13T05:03:59;94668.53;;;1.88;87.01
15568;BME280;7885;42.596;23.044;2023-02-13T05:06:25;94662.34;;;1.88;86.50
15568;BME280;7885;42.596;23.044;2023-02-13T05:08:52;94629.72;;;1.67;86.32
15568;BME280;7885;42.596;23.044;2023-02-13T05:11:19;94659.75;;;1.83;86.57
15568;BME280;7885;42.596;23.044;2023-02-13T05:13:45;94671.69;;;1.77;86.79
15568;BME280;7885;42.596;23.044;2023-02-13T05:16:14;94662.22;;;1.66;87.21
15568;BME280;7885;42.596;23.044;2023-02-13T05:18:40;94682.41;;;1.77;87.14
15568;BME280;7885;42.596;23.044;2023-02-13T05:21:07;94682.00;;;1.70;86.96
15568;BME280;7885;42.596;23.044;2023-02-13T05:23:51;94688.91;;;1.76;87.25
15568;BME280;7885;42.596;23.044;2023-02-13T05:26:18;94688.09;;;1.75;87.44
15568;BME280;7885;42.596;23.044;2023-02-13T05:28:44;94688.31;;;1.79;87.66
15568;BME280;7885;42.596;23.044;2023-02-13T05:31:30;94689.28;;;1.83;87.42
15568;BME280;7885;42.596;23.044;2023-02-13T05:33:57;94686.59;;;1.83;87.47
15568;BME280;7885;42.596;23.044;2023-02-13T05:36:23;94670.69;;;1.73;87.36
15568;BME280;7885;42.596;23.044;2023-02-13T05:38:50;94699.75;;;1.84;87.21
15568;BME280;7885;42.596;23.044;2023-02-13T05:41:17;94700.03;;;1.83;87.45
15568;BME280;7885;42.596;23.044;2023-02-13T05:43:43;94697.84;;;1.85;87.56
15568;BME280;7885;42.596;23.044;2023-02-13T05:46:10;94697.25;;;1.88;87.13
15568;BME280;7885;42.596;23.044;2023-02-13T05:48:38;94704.13;;;1.94;86.98
15568;BME280;7885;42.596;23.044;2023-02-13T05:51:05;94694.97;;;1.95;87.00
15568;BME280;7885;42.596;23.044;2023-02-13T05:53:32;94667.44;;;1.76;86.95
15568;BME280;7885;42.596;23.044;2023-02-13T05:55:59;94693.69;;;1.92;86.97
15568;BME280;7885;42.596;23.044;2023-02-13T05:58:26;94694.38;;;1.98;86.99
15568;BME280;7885;42.596;23.044;2023-02-13T06:00:55;94713.09;;;2.03;86.65
15568;BME280;7885;42.596;23.044;2023-02-13T06:03:22;94703.34;;;2.07;86.58
15568;BME280;7885;42.596;23.044;2023-02-13T06:05:50;94692.00;;;1.96;86.65
15568;BME280;7885;42.596;23.044;2023-02-13T06:08:17;94707.53;;;2.13;86.58
15568;BME280;7885;42.596;23.044;2023-02-13T06:10:43;94710.09;;;2.18;86.48
15568;BME280;7885;42.596;23.044;2023-02-13T06:13:11;94708.81;;;2.16;86.03
15568;BME280;7885;42.596;23.044;2023-02-13T06:15:38;94694.78;;;2.05;86.20
15568;BME280;7885;42.596;23.044;2023-02-13T06:18:05;94698.06;;;2.02;86.40
15568;BME280;7885;42.596;23.044;2023-02-13T06:20:32;94698.47;;;2.09;85.80
15568;BME280;7885;42.596;23.044;2023-02-13T06:23:00;94701.25;;;2.04;85.72
15568;BME280;7885;42.596;23.044;2023-02-13T06:25:27;94699.34;;;1.91;86.09
15568;BME280;7885;42.596;23.044;2023-02-13T06:27:54;94724.34;;;2.05;87.20
15568;BME280;7885;42.596;23.044;2023-02-13T06:30:21;94723.06;;;2.16;87.33
15568;BME280;7885;42.596;23.044;2023-02-13T06:32:48;94726.16;;;2.23;86.90
15568;BME280;7885;42.596;23.044;2023-02-13T06:35:15;94721.25;;;2.25;86.93
15568;BME280;7885;42.596;23.044;2023-02-13T06:37:42;94687.13;;;2.12;86.62
15568;BME280;7885;42.596;23.044;2023-02-13T06:40:12;94738.97;;;2.40;84.65
15568;BME280;7885;42.596;23.044;2023-02-13T06:42:39;94703.34;;;2.21;84.29
15568;BME280;7885;42.596;23.044;2023-02-13T06:45:08;94725.84;;;2.38;84.44
15568;BME280;7885;42.596;23.044;2023-02-13T06:47:35;94724.66;;;2.44;83.86
15568;BME280;7885;42.596;23.044;2023-02-13T06:50:02;94720.38;;;2.43;83.79
15568;BME280;7885;42.596;23.044;2023-02-13T06:52:29;94718.97;;;2.46;83.67
15568;BME280;7885;42.596;23.044;2023-02-13T06:54:55;94717.47;;;2.53;84.20
15568;BME280;7885;42.596;23.044;2023-02-13T06:57:24;94736.75;;;2.69;84.20
15568;BME280;7885;42.596;23.044;2023-02-13T06:59:51;94738.56;;;2.74;83.65
15568;BME280;7885;42.596;23.044;2023-02-13T07:02:18;94741.63;;;2.81;82.96
15568;BME280;7885;42.596;23.044;2023-02-13T07:04:44;94738.94;;;2.81;82.78
15568;BME280;7885;42.596;23.044;2023-02-13T07:07:11;94722.56;;;2.69;82.62
15568;BME280;7885;42.596;23.044;2023-02-13T07:09:38;94733.78;;;2.71;81.81
15568;BME280;7885;42.596;23.044;2023-02-13T07:12:06;94733.59;;;2.67;82.60
15568;BME280;7885;42.596;23.044;2023-02-13T07:14:34;94735.59;;;2.75;82.45
15568;BME280;7885;42.596;23.044;2023-02-13T07:17:01;94731.50;;;2.78;82.74
15568;BME280;7885;42.596;23.044;2023-02-13T07:19:27;94734.44;;;2.90;81.94
15568;BME280;7885;42.596;23.044;2023-02-13T07:21:54;94734.34;;;2.95;81.20
15568;BME280;7885;42.596;23.044;2023-02-13T07:24:21;94714.66;;;2.86;81.44
15568;BME280;7885;42.596;23.044;2023-02-13T07:26:47;94740.31;;;3.05;81.44
15568;BME280;7885;42.596;23.044;2023-02-13T07:29:14;94740.59;;;3.04;81.06
15568;BME280;7885;42.596;23.044;2023-02-13T07:31:42;94751.84;;;3.06;80.54
15568;BME280;7885;42.596;23.044;2023-02-13T07:34:09;94746.69;;;3.10;80.51
15568;BME280;7885;42.596;23.044;2023-02-13T07:36:35;94733.03;;;3.06;80.30
15568;BME280;7885;42.596;23.044;2023-02-13T07:39:02;94734.31;;;3.09;79.94
15568;BME280;7885;42.596;23.044;2023-02-13T07:41:29;94711.34;;;2.89;80.40
15568;BME280;7885;42.596;23.044;2023-02-13T07:43:56;94749.03;;;3.11;80.35
15568;BME280;7885;42.596;23.044;2023-02-13T07:46:23;94738.78;;;3.13;80.06
15568;BME280;7885;42.596;23.044;2023-02-13T07:48:52;94745.03;;;3.22;79.91
15568;BME280;7885;42.596;23.044;2023-02-13T07:51:19;94741.25;;;3.23;79.55
15568;BME280;7885;42.596;23.044;2023-02-13T07:53:49;94743.34;;;3.26;79.95
15568;BME280;7885;42.596;23.044;2023-02-13T07:56:16;94746.22;;;3.30;79.60
15568;BME280;7885;42.596;23.044;2023-02-13T07:58:43;94732.56;;;3.26;79.51
15568;BME280;7885;42.596;23.044;2023-02-13T08:01:11;94746.59;;;3.37;78.99
15568;BME280;7885;42.596;23.044;2023-02-13T08:03:39;94749.56;;;3.35;78.86
15568;BME280;7885;42.596;23.044;2023-02-13T08:06:07;94749.56;;;3.35;79.05
15568;BME280;7885;42.596;23.044;2023-02-13T08:08:35;94706.88;;;3.20;79.35
15568;BME280;7885;42.596;23.044;2023-02-13T08:11:04;94728.38;;;3.34;78.65
15568;BME280;7885;42.596;23.044;2023-02-13T08:13:49;94727.81;;;3.45;78.49
15568;BME280;7885;42.596;23.044;2023-02-13T08:16:15;94708.34;;;3.26;78.48
15568;BME280;7885;42.596;23.044;2023-02-13T08:18:42;94747.19;;;3.56;77.92
15568;BME280;7885;42.596;23.044;2023-02-13T08:21:10;94742.16;;;3.54;78.17
15568;BME280;7885;42.596;23.044;2023-02-13T08:23:39;94744.69;;;3.60;77.23
15568;BME280;7885;42.596;23.044;2023-02-13T08:26:06;94742.94;;;3.55;77.67
15568;BME280;7885;42.596;23.044;2023-02-13T08:28:32;94742.50;;;3.62;77.61
15568;BME280;7885;42.596;23.044;2023-02-13T08:30:59;94735.53;;;3.61;77.71
15568;BME280;7885;42.596;23.044;2023-02-13T08:33:26;94737.50;;;3.69;77.62
15568;BME280;7885;42.596;23.044;2023-02-13T08:35:52;94739.06;;;3.70;76.81
15568;BME280;7885;42.596;23.044;2023-02-13T08:38:20;94739.69;;;3.67;77.28
15568;BME280;7885;42.596;23.044;2023-02-13T08:40:47;94715.66;;;3.48;77.30
15568;BME280;7885;42.596;23.044;2023-02-13T08:43:14;94736.88;;;3.72;77.09
15568;BME280;7885;42.596;23.044;2023-02-13T08:45:40;94740.56;;;3.76;76.89
15568;BME280;7885;42.596;23.044;2023-02-13T08:48:07;94730.81;;;3.88;75.98
15568;BME280;7885;42.596;23.044;2023-02-13T08:50:34;94745.06;;;3.89;75.25
15568;BME280;7885;42.596;23.044;2023-02-13T08:53:00;94738.81;;;3.80;75.99
15568;BME280;7885;42.596;23.044;2023-02-13T08:55:29;94738.88;;;3.88;76.52
15568;BME280;7885;42.596;23.044;2023-02-13T08:57:58;94744.81;;;3.99;76.47
15568;BME280;7885;42.596;23.044;2023-02-13T09:00:25;94740.88;;;4.05;75.90
15568;BME280;7885;42.596;23.044;2023-02-13T09:02:52;94732.44;;;3.98;75.28
15568;BME280;7885;42.596;23.044;2023-02-13T09:05:19;94745.38;;;4.18;75.08
15568;BME280;7885;42.596;23.044;2023-02-13T09:07:45;94745.38;;;4.18;74.08
15568;BME280;7885;42.596;23.044;2023-02-13T09:10:12;94749.88;;;4.31;74.35
15568;BME280;7885;42.596;23.044;2023-02-13T09:12:40;94745.69;;;4.47;73.69
15568;BME280;7885;42.596;23.044;2023-02-13T09:15:08;94740.19;;;4.70;73.55
15568;BME280;7885;42.596;23.044;2023-02-13T09:17:34;94722.28;;;4.74;72.60
15568;BME280;7885;42.596;23.044;2023-02-13T09:20:01;94700.56;;;4.79;71.89
15568;BME280;7885;42.596;23.044;2023-02-13T09:22:29;94740.13;;;5.18;71.77
15568;BME280;7885;42.596;23.044;2023-02-13T09:24:56;94741.59;;;5.32;71.39
15568;BME280;7885;42.596;23.044;2023-02-13T09:27:23;94740.16;;;5.52;70.06
15568;BME280;7885;42.596;23.044;2023-02-13T09:29:51;94740.94;;;5.70;69.06
15568;BME280;7885;42.596;23.044;2023-02-13T09:32:18;94718.84;;;5.76;67.89
15568;BME280;7885;42.596;23.044;2023-02-13T09:34:45;94735.38;;;6.09;66.40
15568;BME280;7885;42.596;23.044;2023-02-13T09:37:11;94737.03;;;6.39;65.40
15568;BME280;7885;42.596;23.044;2023-02-13T09:39:38;94737.03;;;6.77;64.73
15568;BME280;7885;42.596;23.044;2023-02-13T09:42:06;94718.91;;;7.48;63.59
15568;BME280;7885;42.596;23.044;2023-02-13T09:44:42;94723.78;;;9.50;59.13
15568;BME280;7885;42.596;23.044;2023-02-13T09:47:15;94724.91;;;11.23;51.46
15568;BME280;7885;42.596;23.044;2023-02-13T09:49:47;94720.09;;;11.51;48.12
15568;BME280;7885;42.596;23.044;2023-02-13T09:52:15;94716.88;;;13.06;44.44
15568;BME280;7885;42.596;23.044;2023-02-13T09:54:42;94694.00;;;15.65;38.83
15568;BME280;7885;42.596;23.044;2023-02-13T09:57:15;94683.88;;;17.80;33.61
15568;BME280;7885;42.596;23.044;2023-02-13T09:59:51;94674.78;;;19.80;29.89
15568;BME280;7885;42.596;23.044;2023-02-13T10:02:41;94697.78;;;21.32;26.52
15568;BME280;7885;42.596;23.044;2023-02-13T10:05:22;94699.00;;;22.00;25.71
15568;BME280;7885;42.596;23.044;2023-02-13T10:07:58;94693.34;;;23.38;24.31
15568;BME280;7885;42.596;23.044;2023-02-13T10:10:34;94689.69;;;24.22;22.85
15568;BME280;7885;42.596;23.044;2023-02-13T10:13:22;94666.56;;;24.38;21.68
15568;BME280;7885;42.596;23.044;2023-02-13T10:16:01;94679.84;;;24.18;22.12
15568;BME280;7885;42.596;23.044;2023-02-13T10:18:40;94672.16;;;23.77;21.27
15568;BME280;7885;42.596;23.044;2023-02-13T10:21:09;94661.78;;;24.38;21.44
15568;BME280;7885;42.596;23.044;2023-02-13T10:23:41;94641.41;;;24.83;20.96
15568;BME280;7885;42.596;23.044;2023-02-13T10:26:15;94656.28;;;24.92;20.68
15568;BME280;7885;42.596;23.044;2023-02-13T10:28:46;94655.59;;;24.88;20.33
15568;BME280;7885;42.596;23.044;2023-02-13T10:31:36;94653.16;;;25.41;20.46
15568;BME280;7885;42.596;23.044;2023-02-13T10:34:11;94649.31;;;26.07;20.01
15568;BME280;7885;42.596;23.044;2023-02-13T10:36:43;94644.72;;;26.47;19.31
15568;BME280;7885;42.596;23.044;2023-02-13T10:39:20;94646.91;;;26.74;18.50
15568;BME280;7885;42.596;23.044;2023-02-13T10:41:51;94637.06;;;26.60;18.63
15568;BME280;7885;42.596;23.044;2023-02-13T10:44:33;94643.91;;;26.90;18.43
15568;BME280;7885;42.596;23.044;2023-02-13T10:47:13;94634.88;;;27.17;18.20
15568;BME280;7885;42.596;23.044;2023-02-13T10:49:52;94624.69;;;27.32;18.37
15568;BME280;7885;42.596;23.044;2023-02-13T10:52:34;94610.94;;;27.07;17.37
15568;BME280;7885;42.596;23.044;2023-02-13T10:55:14;94595.84;;;26.74;17.86
15568;BME280;7885;42.596;23.044;2023-02-13T10:58:05;94611.13;;;26.82;17.98
15568;BME280;7885;42.596;23.044;2023-02-13T11:00:36;94610.63;;;26.31;18.30
15568;BME280;7885;42.596;23.044;2023-02-13T11:03:15;94603.53;;;26.17;18.22
15568;BME280;7885;42.596;23.044;2023-02-13T11:05:44;94592.16;;;26.55;18.15
15568;BME280;7885;42.596;23.044;2023-02-13T11:08:16;94589.09;;;26.84;18.21
15568;BME280;7885;42.596;23.044;2023-02-13T11:10:43;94578.94;;;26.99;18.03
15568;BME280;7885;42.596;23.044;2023-02-13T11:13:15;94582.84;;;27.10;17.78
15568;BME280;7885;42.596;23.044;2023-02-13T11:15:55;94576.06;;;27.30;17.92
15568;BME280;7885;42.596;23.044;2023-02-13T11:18:25;94579.41;;;27.06;17.75
15568;BME280;7885;42.596;23.044;2023-02-13T11:21:00;94580.91;;;26.68;17.75
15568;BME280;7885;42.596;23.044;2023-02-13T11:23:40;94572.56;;;26.24;18.05
15568;BME280;7885;42.596;23.044;2023-02-13T11:26:10;94539.00;;;25.72;18.37
15568;BME280;7885;42.596;23.044;2023-02-13T11:28:43;94574.00;;;25.73;18.80
15568;BME280;7885;42.596;23.044;2023-02-13T11:31:14;94548.56;;;25.36;19.38
15568;BME280;7885;42.596;23.044;2023-02-13T11:33:44;94530.19;;;24.76;18.97
15568;BME280;7885;42.596;23.044;2023-02-13T11:36:24;94541.78;;;24.07;19.90
15568;BME280;7885;42.596;23.044;2023-02-13T11:39:00;94555.06;;;23.58;20.61
15568;BME280;7885;42.596;23.044;2023-02-13T11:41:28;94543.16;;;22.97;21.47
15568;BME280;7885;42.596;23.044;2023-02-13T11:43:56;94541.84;;;22.13;21.54
15568;BME280;7885;42.596;23.044;2023-02-13T11:46:28;94534.72;;;21.34;23.19
15568;BME280;7885;42.596;23.044;2023-02-13T11:48:57;94510.81;;;20.74;23.14
15568;BME280;7885;42.596;23.044;2023-02-13T11:51:36;94520.63;;;20.28;24.04
15568;BME280;7885;42.596;23.044;2023-02-13T11:54:04;94517.94;;;19.91;24.97
15568;BME280;7885;42.596;23.044;2023-02-13T11:56:47;94509.66;;;19.60;24.32
15568;BME280;7885;42.596;23.044;2023-02-13T11:59:14;94507.09;;;19.02;25.09
15568;BME280;7885;42.596;23.044;2023-02-13T12:01:41;94507.91;;;19.02;25.09
15568;BME280;7885;42.596;23.044;2023-02-13T12:04:13;94498.75;;;19.09;25.31
15568;BME280;7885;42.596;23.044;2023-02-13T12:06:57;94493.44;;;19.25;25.26
15568;BME280;7885;42.596;23.044;2023-02-13T12:09:25;94491.72;;;19.42;24.50
15568;BME280;7885;42.596;23.044;2023-02-13T12:11:54;94481.00;;;19.10;24.38
15568;BME280;7885;42.596;23.044;2023-02-13T12:14:24;94474.00;;;18.61;24.66
15568;BME280;7885;42.596;23.044;2023-02-13T12:16:54;94484.00;;;18.37;24.96
15568;BME280;7885;42.596;23.044;2023-02-13T12:19:28;94477.06;;;18.18;25.60
15568;BME280;7885;42.596;23.044;2023-02-13T12:22:10;94479.63;;;18.43;25.48
15568;BME280;7885;42.596;23.044;2023-02-13T12:27:47;94445.94;;;18.22;25.98
15568;BME280;7885;42.596;23.044;2023-02-13T12:30:36;94470.81;;;18.11;25.97
15568;BME280;7885;42.596;23.044;2023-02-13T12:33:17;94464.16;;;18.05;26.69
15568;BME280;7885;42.596;23.044;2023-02-13T12:35:54;94464.56;;;18.00;25.78
15568;BME280;7885;42.596;23.044;2023-02-13T12:38:33;94448.31;;;17.50;26.54
15568;BME280;7885;42.596;23.044;2023-02-13T12:41:15;94455.69;;;17.75;26.24
15568;BME280;7885;42.596;23.044;2023-02-13T12:46:55;94449.25;;;17.99;25.99
15568;BME280;7885;42.596;23.044;2023-02-13T12:49:48;94451.16;;;18.09;25.69
15568;BME280;7885;42.596;23.044;2023-02-13T12:52:33;94435.28;;;18.24;25.63
15568;BME280;7885;42.596;23.044;2023-02-13T12:55:19;94433.53;;;18.47;25.17
15568;BME280;7885;42.596;23.044;2023-02-13T12:57:56;94418.84;;;18.13;25.51
15568;BME280;7885;42.596;23.044;2023-02-13T13:00:35;94421.91;;;18.22;24.93
15568;BME280;7885;42.596;23.044;2023-02-13T13:03:15;94426.13;;;18.37;25.85
15568;BME280;7885;42.596;23.044;2023-02-13T13:05:55;94420.19;;;18.39;26.06
15568;BME280;7885;42.596;23.044;2023-02-13T13:08:37;94425.66;;;18.42;26.14
15568;BME280;7885;42.596;23.044;2023-02-13T13:11:27;94428.81;;;18.44;26.34
15568;BME280;7885;42.596;23.044;2023-02-13T13:14:05;94404.19;;;17.72;25.87
15568;BME280;7885;42.596;23.044;2023-02-13T13:16:42;94413.25;;;17.69;27.13
15568;BME280;7885;42.596;23.044;2023-02-13T13:19:21;94424.69;;;17.63;27.25
15568;BME280;7885;42.596;23.044;2023-02-13T13:21:54;94418.50;;;17.38;27.55
15568;BME280;7885;42.596;23.044;2023-02-13T13:24:39;94414.53;;;17.43;26.87
15568;BME280;7885;42.596;23.044;2023-02-13T13:27:16;94400.13;;;17.10;27.49
15568;BME280;7885;42.596;23.044;2023-02-13T13:29:47;94397.44;;;16.96;26.45
15568;BME280;7885;42.596;23.044;2023-02-13T13:32:18;94403.72;;;17.00;26.32
15568;BME280;7885;42.596;23.044;2023-02-13T13:34:46;94389.19;;;17.00;26.04
15568;BME280;7885;42.596;23.044;2023-02-13T13:37:18;94400.59;;;16.95;26.67
15568;BME280;7885;42.596;23.044;2023-02-13T13:39:53;94388.81;;;16.91;26.98